Time;durP1;ratioP1;P1;durP2;ratioP2;P2;SDS_P1;SDS_P2;PMS_P1;PMS_P2;Temp;Humidity;BMP_temperature;BMP_pressure;BME280_temperature;BME280_humidity;BME280_pressure;Samples;Min_cycle;Max_cycle;Signal;HPM_P1;HPM_P2
2021/11/15 00:00:54;;;;;;;71.77;36.91;;;;;;;;;;350891;150;860650;-60
2021/11/15 00:01:56;;;;;;;70.06;37.12;;;;;;;;;;351690;150;858816;-61
2021/11/15 00:02:58;;;;;;;71.96;36.67;;;;;;;;;;349961;153;865374;-60
2021/11/15 00:03:59;;;;;;;71.73;36.10;;;;;;;;;;350378;152;859899;-61
2021/11/15 00:05:01;;;;;;;74.69;36.14;;;;;;;;;;350700;150;865092;-60
2021/11/15 01:03:58;;;;;;;64.92;31.11;;;;;;;4.27;78.69;101113.42;371205;142;875316;-60
2021/11/15 01:05:00;;;;;;;61.84;28.32;;;;;;;4.15;78.85;101119.81;366772;145;857234;-61
2021/11/15 01:06:02;;;;;;;53.11;26.77;;;;;;;4.14;78.95;101119.77;363393;145;857850;-58
2021/11/15 01:07:03;;;;;;;53.94;27.26;;;;;;;4.14;79.09;101112.94;365236;147;857339;-58
2021/11/15 01:08:07;;;;;;;55.64;27.09;;;;;;;4.22;79.09;101116.66;364060;146;865041;-59
2021/11/15 01:09:09;;;;;;;58.80;28.29;;;;;;;4.31;78.92;101115.28;363173;145;863687;-58
2021/11/15 01:10:13;;;;;;;53.07;27.73;;;;;;;4.43;78.73;101113.16;363994;145;857310;-59
2021/11/15 01:11:15;;;;;;;57.21;28.71;;;;;;;4.60;78.40;101112.88;364599;145;857692;-59
2021/11/15 01:12:17;;;;;;;54.21;26.69;;;;;;;4.78;77.98;101120.36;362983;145;858729;-59
2021/11/15 01:13:20;;;;;;;47.79;25.66;;;;;;;4.97;77.49;101119.28;364121;145;857128;-60
2021/11/15 01:14:22;;;;;;;48.38;25.48;;;;;;;5.15;76.89;101113.90;363524;147;864800;-59
2021/11/15 01:15:25;;;;;;;47.75;25.79;;;;;;;5.36;76.18;101115.42;365436;146;859908;-60
2021/11/15 01:16:28;;;;;;;48.51;24.99;;;;;;;5.55;75.24;101122.89;363282;145;859092;-60
2021/11/15 01:17:30;;;;;;;45.17;25.03;;;;;;;5.74;74.73;101117.47;365507;145;858712;-60
2021/11/15 01:18:32;;;;;;;44.46;25.19;;;;;;;5.93;73.82;101121.48;362479;147;858998;-60
2021/11/15 01:19:34;;;;;;;50.63;27.87;;;;;;;6.08;73.35;101123.65;364102;145;865563;-59
2021/11/15 01:20:36;;;;;;;54.69;28.47;;;;;;;6.25;72.86;101126.72;362324;145;857266;-59
2021/11/15 01:21:38;;;;;;;47.69;28.09;;;;;;;6.41;72.20;101123.76;352037;152;859324;-59
2021/11/15 01:22:41;;;;;;;51.57;28.56;;;;;;;6.57;71.57;101125.06;353484;150;865693;-59
2021/11/15 01:23:43;;;;;;;47.38;25.98;;;;;;;6.72;70.94;101122.02;359782;147;859291;-58
2021/11/15 01:24:44;;;;;;;49.41;26.76;;;;;;;6.87;70.40;101125.83;358535;149;859324;-58
2021/11/15 01:25:46;;;;;;;46.15;27.26;;;;;;;7.00;69.86;101132.19;358261;149;857306;-58
2021/11/15 01:26:48;;;;;;;48.51;27.13;;;;;;;7.12;69.32;101131.64;357185;148;864983;-58
2021/11/15 01:27:50;;;;;;;50.49;28.20;;;;;;;7.24;68.50;101136.21;361916;147;857632;-61
2021/11/15 01:28:52;;;;;;;46.42;26.99;;;;;;;7.30;68.33;101141.52;357953;150;864965;-59
2021/11/15 01:29:54;;;;;;;46.66;27.19;;;;;;;7.37;68.24;101132.24;358902;148;865064;-58
2021/11/15 01:30:56;;;;;;;52.02;28.41;;;;;;;7.43;67.93;101137.55;356657;148;858754;-59
2021/11/15 01:32:00;;;;;;;50.57;29.12;;;;;;;7.46;67.65;101129.89;359056;147;858979;-58
2021/11/15 01:33:02;;;;;;;55.64;30.36;;;;;;;7.47;67.75;101131.63;358025;147;866888;-59
2021/11/15 01:34:05;;;;;;;52.22;29.34;;;;;;;7.51;67.50;101130.87;356277;148;864845;-58
2021/11/15 01:35:07;;;;;;;52.41;30.39;;;;;;;7.51;67.38;101122.28;356404;147;859043;-59
2021/11/15 01:36:10;;;;;;;50.51;30.41;;;;;;;7.50;67.22;101128.27;357140;150;857401;-58
2021/11/15 01:37:11;;;;;;;57.88;32.10;;;;;;;7.49;67.17;101134.26;358815;147;857362;-58
2021/11/15 01:38:13;;;;;;;55.26;32.39;;;;;;;7.44;67.11;101135.02;360340;147;865011;-58
2021/11/15 01:39:15;;;;;;;60.61;32.78;;;;;;;7.41;67.08;101142.64;360715;148;864854;-61
2021/11/15 01:40:21;;;;;;;60.05;33.34;;;;;;;7.36;67.14;101144.23;356628;148;857221;-59
2021/11/15 01:41:23;;;;;;;58.61;32.32;;;;;;;7.30;67.14;101141.52;357721;148;863840;-59
2021/11/15 01:42:25;;;;;;;58.95;32.47;;;;;;;7.24;67.44;101136.21;357925;148;859363;-59
2021/11/15 01:43:26;;;;;;;56.41;32.96;;;;;;;;;;360022;147;867664;-60
2021/11/15 01:44:28;;;;;;;58.04;30.64;;;;;;;;;;358726;147;865045;-59
2021/11/15 01:45:30;;;;;;;58.96;31.99;;;;;;;;;;358364;147;865572;-60
2021/11/15 01:46:32;;;;;;;59.01;32.60;;;;;;;;;;359597;147;866585;-59
2021/11/15 01:47:34;;;;;;;62.31;33.18;;;;;;;;;;359368;148;868641;-59
2021/11/15 01:48:35;;;;;;;58.62;32.67;;;;;;;;;;359970;147;859747;-60
2021/11/15 01:49:37;;;;;;;57.76;32.46;;;;;;;;;;358007;150;857377;-59
2021/11/15 01:50:39;;;;;;;60.18;32.31;;;;;;;;;;357770;147;867841;-59
2021/11/15 01:51:41;;;;;;;60.41;32.81;;;;;;;;;;358683;148;857276;-59
2021/11/15 01:52:42;;;;;;;55.16;31.96;;;;;;;;;;358966;148;858842;-59
2021/11/15 01:53:44;;;;;;;58.29;31.51;;;;;;;;;;359735;147;856029;-58
2021/11/15 01:54:46;;;;;;;60.46;33.11;;;;;;;;;;358924;149;859470;-58
2021/11/15 01:55:47;;;;;;;60.71;32.45;;;;;;;;;;358572;147;866675;-60
2021/11/15 01:56:49;;;;;;;58.03;32.64;;;;;;;;;;356741;149;857236;-59
2021/11/15 01:57:51;;;;;;;59.89;32.95;;;;;;;;;;357038;149;865654;-59
2021/11/15 01:58:52;;;;;;;66.24;33.54;;;;;;;;;;359110;147;859835;-58
2021/11/15 01:59:54;;;;;;;62.76;32.63;;;;;;;;;;356745;147;857944;-59
2021/11/15 02:02:41;;;;;;;61.23;31.69;;;;;;;6.96;68.41;101133.83;374228;141;889756;-61
2021/11/15 02:03:43;;;;;;;57.32;30.37;;;;;;;6.87;68.43;101131.86;368644;144;857150;-61
2021/11/15 02:04:45;;;;;;;57.99;32.60;;;;;;;6.87;68.40;101138.70;372999;144;857639;-61
2021/11/15 02:05:47;;;;;;;61.77;34.24;;;;;;;6.85;68.36;101128.37;365938;144;864951;-61
2021/11/15 02:06:49;;;;;;;63.42;33.47;;;;;;;6.84;68.41;101123.17;368417;144;857224;-60
2021/11/15 02:07:51;;;;;;;59.03;31.23;;;;;;;6.82;68.37;101129.98;368813;144;856595;-61
2021/11/15 02:08:53;;;;;;;59.64;31.57;;;;;;;6.63;68.72;101126.92;366380;144;857141;-61
2021/11/15 02:09:55;;;;;;;65.48;33.01;;;;;;;6.50;69.47;101128.30;367740;144;859527;-61
2021/11/15 02:10:56;;;;;;;68.65;34.03;;;;;;;;;;366825;144;866669;-61
2021/11/15 02:11:58;;;;;;;68.20;33.46;;;;;;;;;;366846;144;857598;-61
2021/11/15 02:13:00;;;;;;;62.38;33.34;;;;;;;;;;367278;144;864893;-61
2021/11/15 02:14:02;;;;;;;62.34;33.11;;;;;;;;;;367981;144;864871;-61
2021/11/15 02:15:04;;;;;;;65.65;34.03;;;;;;;;;;366156;147;860925;-61
2021/11/15 02:16:07;;;;;;;61.45;33.08;;;;;;;;;;367222;144;857371;-61
2021/11/15 02:17:08;;;;;;;64.33;33.76;;;;;;;;;;370590;144;857819;-61
2021/11/15 02:18:10;;;;;;;65.98;32.86;;;;;;;;;;366094;144;856368;-60
2021/11/15 02:19:11;;;;;;;63.66;33.52;;;;;;;;;;368171;144;865350;-60
2021/11/15 02:20:18;;;;;;;61.04;32.88;;;;;;;;;;367256;144;859388;-60
2021/11/15 02:21:20;;;;;;;62.77;33.23;;;;;;;;;;360900;144;858910;-60
2021/11/15 02:22:22;;;;;;;61.90;33.26;;;;;;;;;;361244;147;858119;-60
2021/11/15 02:23:24;;;;;;;63.41;35.19;;;;;;;;;;364784;146;864984;-60
2021/11/15 02:24:25;;;;;;;62.77;33.66;;;;;;;;;;363551;146;865904;-61
2021/11/15 02:25:27;;;;;;;66.09;34.31;;;;;;;;;;360799;148;858824;-60
2021/11/15 02:26:29;;;;;;;60.57;33.51;;;;;;;;;;363094;146;859972;-60
2021/11/15 02:27:30;;;;;;;62.20;34.44;;;;;;;;;;361664;146;866052;-60
2021/11/15 02:28:33;;;;;;;67.58;34.33;;;;;;;;;;363354;147;864916;-60
2021/11/15 02:29:36;;;;;;;63.70;34.71;;;;;;;;;;363769;147;865011;-60
2021/11/15 02:30:38;;;;;;;65.10;35.38;;;;;;;;;;362356;146;857284;-60
2021/11/15 02:31:40;;;;;;;67.11;34.39;;;;;;;;;;361946;147;864892;-62
2021/11/15 02:32:42;;;;;;;71.46;35.92;;;;;;;;;;362925;147;860330;-61
2021/11/15 02:33:45;;;;;;;67.86;34.55;;;;;;;;;;363883;147;865762;-61
2021/11/15 02:34:47;;;;;;;66.81;34.56;;;;;;;;;;361796;146;865825;-60
2021/11/15 02:35:49;;;;;;;67.74;35.44;;;;;;;;;;362800;147;857721;-61
2021/11/15 02:36:50;;;;;;;66.11;35.11;;;;;;;;;;365128;147;863684;-61
2021/11/15 02:37:52;;;;;;;68.91;34.83;;;;;;;;;;356818;149;865017;-60
2021/11/15 02:38:54;;;;;;;65.08;35.58;;;;;;;;;;355372;149;861611;-60
2021/11/15 02:39:56;;;;;;;69.99;36.52;;;;;;;;;;360013;147;865928;-61
2021/11/15 02:40:58;;;;;;;66.74;34.74;;;;;;;;;;362866;146;857590;-60
2021/11/15 02:41:59;;;;;;;62.45;35.25;;;;;;;;;;365067;146;864942;-61
2021/11/15 02:43:01;;;;;;;69.26;36.69;;;;;;;;;;360589;147;858974;-60
2021/11/15 02:44:07;;;;;;;69.87;36.17;;;;;;;;;;360966;147;866218;-60
2021/11/15 02:45:09;;;;;;;67.17;36.11;;;;;;;;;;362042;146;857322;-61
2021/11/15 02:46:11;;;;;;;71.17;35.23;;;;;;;;;;364154;147;858883;-61
2021/11/15 02:47:12;;;;;;;69.06;37.40;;;;;;;;;;360281;147;859655;-61
2021/11/15 02:48:14;;;;;;;73.53;37.34;;;;;;;;;;364457;146;864762;-61
2021/11/15 02:49:16;;;;;;;73.55;38.57;;;;;;;;;;354750;149;864928;-59
2021/11/15 02:50:19;;;;;;;79.43;38.39;;;;;;;;;;355959;147;858931;-63
2021/11/15 02:51:21;;;;;;;79.50;39.20;;;;;;;;;;363590;147;860287;-60
2021/11/15 02:52:22;;;;;;;77.78;38.49;;;;;;;;;;361132;146;858058;-60
2021/11/15 02:53:24;;;;;;;76.84;39.14;;;;;;;;;;361869;147;857195;-60
2021/11/15 02:54:26;;;;;;;80.46;37.83;;;;;;;;;;363499;147;858521;-60
2021/11/15 02:55:27;;;;;;;76.84;40.91;;;;;;;;;;363864;146;858291;-60
2021/11/15 02:56:29;;;;;;;74.04;36.64;;;;;;;;;;361636;147;857506;-60
2021/11/15 02:57:31;;;;;;;76.04;39.25;;;;;;;;;;363492;147;859385;-60
2021/11/15 02:58:32;;;;;;;75.99;38.54;;;;;;;;;;363035;146;856727;-60
2021/11/15 02:59:34;;;;;;;71.72;37.59;;;;;;;;;;363400;147;856231;-60
2021/11/15 03:02:37;;;;;;;70.04;36.21;;;;;;;6.54;70.25;101181.59;371336;142;877421;-62
2021/11/15 03:03:39;;;;;;;64.25;32.95;;;;;;;6.46;70.32;101187.34;365477;147;857283;-62
2021/11/15 03:04:43;;;;;;;59.41;31.07;;;;;;;;;;354290;150;857794;-63
2021/11/15 03:05:45;;;;;;;59.07;31.21;;;;;;;;;;363323;146;857363;-60
2021/11/15 03:06:47;;;;;;;66.50;32.63;;;;;;;;;;362247;146;857179;-60
2021/11/15 03:07:48;;;;;;;62.54;34.26;;;;;;;;;;359651;147;865327;-60
2021/11/15 03:08:50;;;;;;;66.43;33.67;;;;;;;;;;364829;147;857364;-63
2021/11/15 03:09:51;;;;;;;71.14;35.70;;;;;;;;;;362824;146;865903;-60
2021/11/15 03:10:58;;;;;;;65.36;34.67;;;;;;;;;;364202;147;865437;-60
2021/11/15 03:11:57;;;;;;;70.12;37.44;;;;;;;;;;363119;147;865272;-60
2021/11/15 03:12:59;;;;;;;72.50;38.13;;;;;;;;;;364441;146;857604;-60
2021/11/15 03:14:01;;;;;;;76.13;38.64;;;;;;;;;;363022;146;864767;-60
2021/11/15 03:15:02;;;;;;;82.02;41.14;;;;;;;;;;362270;147;865025;-60
2021/11/15 03:16:04;;;;;;;78.87;41.71;;;;;;;;;;363181;146;866232;-61
2021/11/15 03:17:06;;;;;;;83.53;41.57;;;;;;;;;;364726;146;857322;-61
2021/11/15 03:18:10;;;;;;;82.65;40.16;;;;;;;;;;365930;147;857207;-61
2021/11/15 03:19:11;;;;;;;82.39;42.44;;;;;;;;;;363779;147;865110;-61
2021/11/15 03:20:13;;;;;;;81.14;41.87;;;;;;;;;;364055;146;859510;-61
2021/11/15 03:21:18;;;;;;;84.39;42.69;;;;;;;;;;358662;146;860055;-61
2021/11/15 03:22:19;;;;;;;78.93;41.45;;;;;;;;;;356721;149;857394;-60
2021/11/15 03:23:22;;;;;;;90.46;43.73;;;;;;;;;;356773;148;857164;-60
2021/11/15 03:24:24;;;;;;;82.15;41.80;;;;;;;;;;356006;149;865865;-60
2021/11/15 03:25:26;;;;;;;87.32;41.62;;;;;;;;;;356133;150;866178;-61
2021/11/15 03:26:29;;;;;;;86.78;43.28;;;;;;;;;;356623;148;865132;-60
2021/11/15 03:27:34;;;;;;;93.41;44.79;;;;;;;;;;360011;147;857851;-61
2021/11/15 03:28:37;;;;;;;86.46;42.22;;;;;;;;;;356421;148;864895;-61
2021/11/15 03:29:39;;;;;;;81.83;43.76;;;;;;;;;;360498;148;859849;-60
2021/11/15 03:30:41;;;;;;;85.09;44.31;;;;;;;;;;357780;148;865062;-62
2021/11/15 03:31:43;;;;;;;87.19;43.61;;;;;;;;;;355882;147;857194;-61
2021/11/15 03:32:45;;;;;;;94.20;45.92;;;;;;;;;;355508;147;866875;-62
2021/11/15 03:33:48;;;;;;;86.99;43.31;;;;;;;;;;358192;147;857231;-60
2021/11/15 03:34:49;;;;;;;94.51;45.57;;;;;;;;;;357738;148;857814;-61
2021/11/15 03:35:51;;;;;;;94.86;45.43;;;;;;;;;;355610;148;856739;-61
2021/11/15 03:36:53;;;;;;;94.89;45.08;;;;;;;;;;359949;148;860042;-61
2021/11/15 03:37:54;;;;;;;90.63;44.73;;;;;;;;;;357681;149;865015;-61
2021/11/15 03:38:56;;;;;;;88.39;43.73;;;;;;;;;;358769;147;857326;-61
2021/11/15 03:39:58;;;;;;;100.42;45.46;;;;;;;;;;359770;148;857173;-61
2021/11/15 03:41:00;;;;;;;90.05;43.15;;;;;;;;;;355526;147;866863;-61
2021/11/15 03:42:02;;;;;;;87.42;45.43;;;;;;;;;;357099;148;857239;-61
2021/11/15 03:43:05;;;;;;;94.71;43.73;;;;;;;;;;355178;148;858231;-60
2021/11/15 03:44:06;;;;;;;87.95;43.73;;;;;;;;;;354158;148;857243;-61
2021/11/15 03:45:09;;;;;;;94.61;44.91;;;;;;;;;;350820;151;857314;-61
2021/11/15 03:46:11;;;;;;;89.11;45.45;;;;;;;;;;351242;150;857804;-60
2021/11/15 03:47:13;;;;;;;84.93;45.90;;;;;;;;;;354815;148;857807;-60
2021/11/15 03:48:14;;;;;;;84.48;43.24;;;;;;;;;;357818;147;866851;-62
2021/11/15 03:49:16;;;;;;;86.11;45.04;;;;;;;;;;355867;149;859620;-60
2021/11/15 03:50:18;;;;;;;90.79;45.05;;;;;;;;;;345654;152;867072;-61
2021/11/15 03:51:20;;;;;;;90.75;43.08;;;;;;;;;;349470;152;857264;-60
2021/11/15 03:52:21;;;;;;;88.27;44.74;;;;;;;;;;355663;148;864883;-61
2021/11/15 03:53:24;;;;;;;97.62;45.02;;;;;;;;;;358569;147;859023;-60
2021/11/15 03:54:25;;;;;;;95.71;46.55;;;;;;;;;;356343;148;865391;-61
2021/11/15 03:55:27;;;;;;;96.03;45.59;;;;;;;;;;358249;148;857132;-60
2021/11/15 03:56:29;;;;;;;91.48;45.39;;;;;;;;;;356246;147;857359;-61
2021/11/15 03:57:31;;;;;;;96.39;45.74;;;;;;;;;;352104;153;861888;-60
2021/11/15 03:58:33;;;;;;;94.11;45.68;;;;;;;;;;349951;152;866652;-60
2021/11/15 03:59:35;;;;;;;89.69;44.09;;;;;;;;;;356670;149;865098;-61
2021/11/15 04:00:39;;;;;;;94.09;47.54;;;;;;;;;;358003;147;857835;-60
2021/11/15 04:01:43;;;;;;;92.56;44.34;;;;;;;;;;357818;147;857269;-61
2021/11/15 04:02:45;;;;;;;90.07;44.11;;;;;;;;;;357488;147;858677;-61
2021/11/15 04:03:47;;;;;;;94.33;44.58;;;;;;;;;;356375;147;865727;-60
2021/11/15 04:04:53;;;;;;;92.59;44.69;;;;;;;;;;357117;149;864941;-60
2021/11/15 04:05:59;;;;;;;92.66;44.26;;;;;;;;;;356631;148;856297;-61
2021/11/15 04:06:59;;;;;;;85.99;42.61;;;;;;;;;;356724;149;858772;-61
2021/11/15 04:08:02;;;;;;;94.69;44.28;;;;;;;;;;354960;147;866269;-60
2021/11/15 04:09:06;;;;;;;89.04;42.88;;;;;;;;;;356208;148;864838;-60
2021/11/15 04:10:15;;;;;;;90.84;42.59;;;;;;;;;;357222;149;857332;-61
2021/11/15 04:11:19;;;;;;;90.26;42.10;;;;;;;;;;354427;147;857264;-60
2021/11/15 04:12:21;;;;;;;83.98;41.62;;;;;;;;;;356202;148;858413;-60
2021/11/15 04:13:25;;;;;;;83.16;40.49;;;;;;;;;;357202;147;857987;-60
2021/11/15 04:14:28;;;;;;;88.37;40.62;;;;;;;;;;358146;148;865626;-60
2021/11/15 04:15:30;;;;;;;93.54;42.50;;;;;;;;;;346030;153;866006;-60
2021/11/15 04:16:32;;;;;;;81.73;40.84;;;;;;;;;;345273;152;864805;-61
2021/11/15 04:17:34;;;;;;;87.29;43.25;;;;;;;;;;357587;147;860186;-61
2021/11/15 04:18:37;;;;;;;84.37;40.22;;;;;;;;;;358757;148;857242;-61
2021/11/15 04:19:39;;;;;;;88.89;42.18;;;;;;;;;;359296;147;859056;-61
2021/11/15 04:20:40;;;;;;;86.16;39.63;;;;;;;;;;358223;147;857302;-62
2021/11/15 04:21:43;;;;;;;82.70;40.49;;;;;;;;;;358074;147;866779;-61
2021/11/15 04:22:45;;;;;;;84.55;41.09;;;;;;;;;;360227;147;858295;-61
2021/11/15 04:23:47;;;;;;;84.39;41.54;;;;;;;;;;358656;147;859220;-61
2021/11/15 04:24:48;;;;;;;84.67;41.24;;;;;;;;;;357911;148;859161;-61
2021/11/15 04:25:50;;;;;;;84.04;40.26;;;;;;;;;;358105;150;866757;-61
2021/11/15 04:26:52;;;;;;;82.03;39.91;;;;;;;;;;354059;148;861122;-61
2021/11/15 04:27:53;;;;;;;78.39;39.60;;;;;;;;;;355743;149;866012;-61
2021/11/15 04:28:56;;;;;;;82.78;40.07;;;;;;;;;;357074;148;859176;-61
2021/11/15 04:29:57;;;;;;;79.19;39.93;;;;;;;;;;356089;147;857278;-61
2021/11/15 04:30:59;;;;;;;83.09;40.75;;;;;;;;;;355275;147;857266;-61
2021/11/15 04:32:01;;;;;;;86.54;39.31;;;;;;;;;;358480;150;865871;-62
2021/11/15 04:33:04;;;;;;;77.69;39.14;;;;;;;;;;351236;150;859015;-61
2021/11/15 04:34:05;;;;;;;81.97;39.56;;;;;;;;;;349699;147;861730;-60
2021/11/15 04:35:08;;;;;;;81.25;39.73;;;;;;;;;;357213;147;857493;-61
2021/11/15 04:36:10;;;;;;;78.83;37.49;;;;;;;;;;356642;147;856811;-60
2021/11/15 04:37:12;;;;;;;81.81;40.09;;;;;;;;;;357896;148;866888;-60
2021/11/15 04:38:13;;;;;;;84.37;38.75;;;;;;;;;;356056;149;863696;-61
2021/11/15 04:39:15;;;;;;;82.42;38.25;;;;;;;;;;358641;150;859852;-61
2021/11/15 04:40:17;;;;;;;82.01;39.94;;;;;;;;;;352550;150;859286;-60
2021/11/15 04:41:19;;;;;;;82.99;39.74;;;;;;;;;;359206;147;858636;-60
2021/11/15 04:42:21;;;;;;;82.97;40.03;;;;;;;;;;355497;150;868600;-60
2021/11/15 04:43:23;;;;;;;88.69;39.35;;;;;;;;;;358185;150;859740;-60
2021/11/15 04:44:24;;;;;;;86.01;38.79;;;;;;;;;;358062;147;859308;-61
2021/11/15 04:45:26;;;;;;;80.51;38.64;;;;;;;;;;358349;147;864968;-60
2021/11/15 04:46:28;;;;;;;84.42;40.43;;;;;;;;;;361178;147;857328;-61
2021/11/15 04:47:29;;;;;;;82.96;36.98;;;;;;;;;;358205;147;857210;-61
2021/11/15 04:48:31;;;;;;;81.68;38.89;;;;;;;;;;359705;147;858697;-61
2021/11/15 04:49:33;;;;;;;81.71;37.99;;;;;;;;;;354602;147;865044;-61
2021/11/15 04:50:34;;;;;;;78.71;37.06;;;;;;;;;;355932;151;865128;-61
2021/11/15 04:51:36;;;;;;;76.39;38.66;;;;;;;;;;358272;147;865087;-61
2021/11/15 04:52:37;;;;;;;81.20;37.97;;;;;;;;;;357879;147;867004;-61
2021/11/15 04:53:39;;;;;;;81.58;39.62;;;;;;;;;;354880;147;866684;-60
2021/11/15 04:54:41;;;;;;;84.29;39.14;;;;;;;;;;358573;147;866652;-63
2021/11/15 04:55:42;;;;;;;85.46;37.01;;;;;;;;;;358130;147;858072;-61
2021/11/15 04:56:44;;;;;;;84.89;38.71;;;;;;;;;;357535;147;864975;-60
2021/11/15 04:57:45;;;;;;;72.60;35.16;;;;;;;;;;358802;147;866842;-60
2021/11/15 04:58:49;;;;;;;83.26;37.97;;;;;;;;;;357403;147;866987;-63
2021/11/15 04:59:50;;;;;;;72.00;35.84;;;;;;;;;;356555;147;864888;-62
2021/11/15 05:00:52;;;;;;;80.83;37.58;;;;;;;;;;356468;147;860610;-61
2021/11/15 05:01:54;;;;;;;80.19;38.28;;;;;;;;;;358152;150;865026;-61
2021/11/15 05:02:56;;;;;;;82.97;38.29;;;;;;;;;;356987;148;859632;-61
2021/11/15 05:03:58;;;;;;;80.71;36.36;;;;;;;;;;358986;147;857485;-62
2021/11/15 05:04:59;;;;;;;88.18;38.60;;;;;;;;;;358024;147;865349;-61
2021/11/15 05:06:02;;;;;;;85.79;37.99;;;;;;;;;;357043;147;857043;-62
2021/11/15 05:07:04;;;;;;;81.25;36.25;;;;;;;;;;352370;150;859527;-61
2021/11/15 05:08:05;;;;;;;85.53;37.69;;;;;;;;;;358155;147;857276;-62
2021/11/15 05:09:07;;;;;;;84.66;37.96;;;;;;;;;;357602;147;857525;-61
2021/11/15 05:10:09;;;;;;;79.25;36.13;;;;;;;;;;358397;147;865062;-62
2021/11/15 05:11:11;;;;;;;82.95;36.28;;;;;;;;;;358205;149;856425;-61
2021/11/15 05:12:13;;;;;;;93.19;38.19;;;;;;;;;;356388;150;857428;-62
2021/11/15 05:13:14;;;;;;;80.07;36.37;;;;;;;;;;357587;147;857414;-62
2021/11/15 05:14:16;;;;;;;84.70;39.39;;;;;;;;;;357474;147;860524;-61
2021/11/15 05:15:18;;;;;;;78.21;37.54;;;;;;;;;;348515;150;859755;-61
2021/11/15 05:16:20;;;;;;;80.17;37.08;;;;;;;;;;349789;151;864695;-61
2021/11/15 05:17:22;;;;;;;82.31;36.20;;;;;;;;;;357691;148;859803;-61
2021/11/15 05:18:23;;;;;;;77.95;37.19;;;;;;;;;;358590;148;866183;-61
2021/11/15 05:19:25;;;;;;;80.97;36.47;;;;;;;;;;357929;150;858643;-61
2021/11/15 05:20:27;;;;;;;80.90;35.99;;;;;;;;;;357613;148;857397;-61
2021/11/15 05:21:29;;;;;;;86.10;37.55;;;;;;;;;;357403;149;865015;-61
2021/11/15 05:22:30;;;;;;;82.61;35.05;;;;;;;;;;356214;147;859142;-61
2021/11/15 05:23:32;;;;;;;84.32;36.68;;;;;;;;;;357865;150;865137;-61
2021/11/15 05:25:49;;;;;;;74.83;33.99;;;;;;;5.64;74.98;101325.31;379277;139;881613;-61
2021/11/15 05:26:51;;;;;;;63.09;28.39;;;;;;;5.47;75.12;101345.27;370243;144;857074;-61
2021/11/15 05:27:54;;;;;;;56.70;26.40;;;;;;;5.45;75.44;101348.61;371868;142;858070;-61
2021/11/15 05:28:56;;;;;;;59.45;26.41;;;;;;;5.45;75.38;101344.33;370910;143;858889;-61
2021/11/15 05:29:58;;;;;;;56.59;25.85;;;;;;;5.43;75.45;101347.69;369143;144;857279;-61
2021/11/15 05:31:00;;;;;;;52.12;25.41;;;;;;;5.42;75.64;101349.36;371241;144;857290;-61
2021/11/15 05:32:02;;;;;;;50.22;23.83;;;;;;;5.56;75.24;101343.02;371122;142;857589;-61
2021/11/15 05:33:04;;;;;;;53.09;24.89;;;;;;;;;;370861;143;857886;-61
2021/11/15 05:34:05;;;;;;;54.63;27.89;;;;;;;;;;373503;144;861037;-61
2021/11/15 05:35:07;;;;;;;58.48;27.59;;;;;;;;;;370415;142;865603;-61
2021/11/15 05:36:09;;;;;;;64.27;27.49;;;;;;;;;;372179;143;865450;-61
2021/11/15 05:37:14;;;;;;;61.47;27.79;;;;;;;;;;372058;142;858932;-61
2021/11/15 05:38:15;;;;;;;67.11;29.56;;;;;;;;;;371071;144;859664;-61
2021/11/15 05:39:16;;;;;;;66.04;30.41;;;;;;;;;;370640;143;857215;-61
2021/11/15 05:40:19;;;;;;;60.09;29.30;;;;;;;;;;369528;144;859564;-61
2021/11/15 05:41:21;;;;;;;66.81;30.99;;;;;;;;;;362278;145;865871;-61
2021/11/15 05:42:22;;;;;;;60.61;31.14;;;;;;;;;;363361;145;857849;-61
2021/11/15 05:43:24;;;;;;;64.27;32.61;;;;;;;;;;363751;145;864994;-61
2021/11/15 05:44:26;;;;;;;66.11;32.49;;;;;;;;;;365742;145;857507;-61
2021/11/15 05:45:28;;;;;;;75.51;33.67;;;;;;;;;;364613;145;858914;-61
2021/11/15 05:46:31;;;;;;;70.25;32.11;;;;;;;;;;362789;145;858085;-61
2021/11/15 05:47:32;;;;;;;64.16;31.23;;;;;;;;;;365142;144;865081;-61
2021/11/15 05:48:34;;;;;;;63.82;32.16;;;;;;;;;;364860;145;858702;-61
2021/11/15 05:49:36;;;;;;;65.77;31.86;;;;;;;;;;364418;145;865047;-61
2021/11/15 05:50:37;;;;;;;71.17;32.40;;;;;;;;;;363841;145;865117;-61
2021/11/15 05:51:39;;;;;;;65.98;31.96;;;;;;;;;;369650;144;857064;-61
2021/11/15 05:52:42;;;;;;;75.43;33.83;;;;;;;;;;364843;144;858236;-61
2021/11/15 05:53:46;;;;;;;64.66;33.18;;;;;;;;;;364827;145;858905;-61
2021/11/15 05:54:48;;;;;;;68.93;32.29;;;;;;;;;;365426;146;859025;-61
2021/11/15 05:55:49;;;;;;;69.88;31.56;;;;;;;;;;365391;144;866589;-61
2021/11/15 05:56:51;;;;;;;67.33;31.34;;;;;;;;;;363337;144;858386;-61
2021/11/15 05:57:52;;;;;;;68.46;33.04;;;;;;;;;;364072;145;865113;-61
2021/11/15 05:58:54;;;;;;;64.36;31.60;;;;;;;;;;363009;144;866747;-61
2021/11/15 05:59:56;;;;;;;64.09;31.06;;;;;;;;;;363308;144;865085;-61
2021/11/15 06:00:59;;;;;;;64.95;32.72;;;;;;;;;;365089;144;857237;-61
2021/11/15 06:02:01;;;;;;;69.73;33.03;;;;;;;;;;366171;145;867161;-61
2021/11/15 06:03:02;;;;;;;68.96;32.92;;;;;;;;;;364132;145;865201;-61
2021/11/15 06:04:04;;;;;;;71.31;32.34;;;;;;;;;;364208;145;859885;-61
2021/11/15 06:05:06;;;;;;;62.81;31.09;;;;;;;;;;365712;144;857944;-61
2021/11/15 06:06:08;;;;;;;75.51;32.99;;;;;;;;;;364906;144;858379;-61
2021/11/15 06:07:09;;;;;;;69.16;30.01;;;;;;;;;;363432;144;858312;-62
2021/11/15 06:08:11;;;;;;;69.00;31.11;;;;;;;;;;364305;144;866340;-62
2021/11/15 06:09:13;;;;;;;66.22;30.67;;;;;;;;;;363111;146;858893;-62
2021/11/15 06:10:16;;;;;;;73.62;33.56;;;;;;;;;;363961;145;856480;-61
2021/11/15 06:11:19;;;;;;;72.64;31.76;;;;;;;;;;356539;148;856144;-62
2021/11/15 06:12:22;;;;;;;67.59;32.31;;;;;;;;;;357987;148;864300;-62
2021/11/15 06:13:23;;;;;;;67.10;31.34;;;;;;;;;;360245;145;856589;-61
2021/11/15 06:14:25;;;;;;;64.64;32.44;;;;;;;;;;365074;145;857772;-62
2021/11/15 06:15:27;;;;;;;67.07;30.50;;;;;;;;;;365271;146;866200;-61
2021/11/15 06:16:30;;;;;;;64.73;30.85;;;;;;;;;;365693;145;857170;-60
2021/11/15 06:17:32;;;;;;;62.88;31.97;;;;;;;;;;356172;150;857234;-61
2021/11/15 06:18:34;;;;;;;67.41;32.33;;;;;;;;;;355094;147;859061;-61
2021/11/15 06:19:35;;;;;;;65.91;31.93;;;;;;;;;;363628;145;865000;-63
2021/11/15 06:20:37;;;;;;;58.66;30.98;;;;;;;;;;367155;145;857297;-60
2021/11/15 06:21:39;;;;;;;64.81;30.62;;;;;;;;;;364055;145;865165;-60
2021/11/15 06:22:41;;;;;;;74.60;33.38;;;;;;;;;;365724;145;857253;-60
2021/11/15 06:23:43;;;;;;;68.50;31.78;;;;;;;;;;363339;145;859860;-60
2021/11/15 06:24:47;;;;;;;67.83;31.44;;;;;;;;;;362874;145;857365;-60
2021/11/15 06:25:48;;;;;;;65.81;31.56;;;;;;;;;;364519;145;867383;-63
2021/11/15 06:26:50;;;;;;;67.89;32.29;;;;;;;;;;366255;145;857210;-61
2021/11/15 06:27:52;;;;;;;76.21;33.33;;;;;;;;;;364158;145;857145;-61
2021/11/15 06:28:54;;;;;;;62.26;31.86;;;;;;;;;;366434;145;858059;-61
2021/11/15 06:29:55;;;;;;;63.48;31.54;;;;;;;;;;365854;147;860569;-61
2021/11/15 06:30:57;;;;;;;58.38;30.51;;;;;;;;;;366379;145;857213;-61
2021/11/15 06:31:59;;;;;;;66.62;32.80;;;;;;;;;;364766;145;864738;-61
2021/11/15 06:33:01;;;;;;;67.65;32.42;;;;;;;;;;361878;145;858948;-61
2021/11/15 06:34:03;;;;;;;62.57;29.86;;;;;;;;;;365417;145;859079;-61
2021/11/15 06:35:05;;;;;;;73.31;30.67;;;;;;;;;;365728;145;857504;-61
2021/11/15 06:36:07;;;;;;;63.72;31.23;;;;;;;;;;364732;144;865008;-62
2021/11/15 06:37:09;;;;;;;60.84;30.41;;;;;;;;;;364130;146;859072;-61
2021/11/15 06:38:10;;;;;;;50.61;24.51;;;;;;;;;;365341;146;857947;-61
2021/11/15 06:39:12;;;;;;;64.29;30.94;;;;;;;;;;366207;145;857334;-61
2021/11/15 06:40:15;;;;;;;61.40;31.27;;;;;;;;;;361966;145;857593;-61
2021/11/15 06:41:17;;;;;;;63.88;30.66;;;;;;;;;;362959;147;857295;-61
2021/11/15 06:42:18;;;;;;;62.73;29.59;;;;;;;;;;362654;145;857644;-60
2021/11/15 06:43:20;;;;;;;54.39;28.73;;;;;;;;;;362507;145;858957;-61
2021/11/15 06:44:22;;;;;;;60.94;30.86;;;;;;;;;;363032;146;858910;-60